Meia Via — CULH2 — position and weather

sailwx.info

Track history (hours):
 
Tides and Currents Weather Stations Pressure Air Temp Water Temp Dewpoint Dewpoint Depression Visibility Wind Speed Wind Dir Waves Ship Positions

Meia Via

Last reported at 2018-Jun-22 21:57 UTC. Time now 2018-Jun-24 15:10 UTC.
Position N 39°14' W 009°29'.

Length 21 m.

Type: Fishing. MMSI: 263405570.

Date/timePositionNaut miles runAvg speedWind from/ knotsBaromVisibWave heightAir tempDewpointWater temp
2018-Jun-22 21:57N 39°14' W 009°29'3 5.8
2018-Jun-22 21:25N 39°11' W 009°29'0 0.1
2018-Jun-22 21:01N 39°11' W 009°29'0 0.2
2018-Jun-22 20:29N 39°11' W 009°29'2 4.0
2018-Jun-22 20:00N 39°12' W 009°28'1 0.2
2018-Jun-22 15:57N 39°13' W 009°27'1 3.4
2018-Jun-22 15:30N 39°11' W 009°28'0 0.1
2018-Jun-22 15:01N 39°11' W 009°28'0 0.2
2018-Jun-22 14:27N 39°11' W 009°28'3 4.5
2018-Jun-22 13:51N 39°14' W 009°28'7 0.5
2018-Jun-21 23:55N 39°20' W 009°24'4 9.9
2018-Jun-21 23:29N 39°17' W 009°28'5 9.9
2018-Jun-21 23:00N 39°14' W 009°32'1 2.7
2018-Jun-21 22:29N 39°13' W 009°33'4 4.8
2018-Jun-21 21:45N 39°10' W 009°31'2 9.7
2018-Jun-21 21:30N 39°08' W 009°29'1 1.5
2018-Jun-21 21:00N 39°07' W 009°29'0 0.1
2018-Jun-21 20:31N 39°07' W 009°28'1 2.0
2018-Jun-21 20:00N 39°08' W 009°28'1 1.3
2018-Jun-21 19:30N 39°08' W 009°29'0 0.0
2018-Jun-21 19:01N 39°08' W 009°29'0 0.1
2018-Jun-21 18:31N 39°08' W 009°28'1 2.0
2018-Jun-21 18:00N 39°09' W 009°28'4 8.2
2018-Jun-21 17:29N 39°13' W 009°25'1 0.1
2018-Jun-20 22:05N 39°14' W 009°25'4 8.5
2018-Jun-20 21:36N 39°10' W 009°26'1 8.6
2018-Jun-20 21:30N 39°09' W 009°26'2 4.4
2018-Jun-20 21:00N 39°07' W 009°27'0 0.1
2018-Jun-20 20:30N 39°07' W 009°27'1 1.9
2018-Jun-20 20:00N 39°07' W 009°28'0 0.6
2018-Jun-20 19:29N 39°07' W 009°29'1 2.4
2018-Jun-20 19:00N 39°08' W 009°27'0 0.0
2018-Jun-20 18:30N 39°08' W 009°27'0 0.1
2018-Jun-20 18:00N 39°08' W 009°27'2 4.6
2018-Jun-20 17:29N 39°10' W 009°25'1 2.9
2018-Jun-20 16:58N 39°10' W 009°24'0 0.0
2018-Jun-20 16:30N 39°10' W 009°24'0 0.1
2018-Jun-20 15:57N 39°10' W 009°24'1 1.3
2018-Jun-20 15:28N 39°11' W 009°24'2 0.1
2018-Jun-19 21:54N 39°11' W 009°26'4 9.0
2018-Jun-19 21:30N 39°08' W 009°27'1 2.6
2018-Jun-19 21:00N 39°06' W 009°28'0 0.3
2018-Jun-19 20:30N 39°06' W 009°27'0 0.3
2018-Jun-19 20:00N 39°06' W 009°27'0 0.6
2018-Jun-19 19:30N 39°06' W 009°27'0 0.9
2018-Jun-19 19:00N 39°06' W 009°27'0 0.3
2018-Jun-19 18:30N 39°06' W 009°27'0 0.4
2018-Jun-19 18:00N 39°06' W 009°27'0 0.2
2018-Jun-19 17:30N 39°06' W 009°27'3 5.9
2018-Jun-19 17:00N 39°03' W 009°29'4 8.6
2018-Jun-19 16:30N 38°59' W 009°28'10 4.9
2018-Jun-19 14:23N 39°09' W 009°25'8 0.3
2018-Jun-18 15:10N 39°18' W 009°26'  
2018-Jun-14 21:54N 39°10' W 009°26'3 8.9
2018-Jun-14 21:30N 39°07' W 009°28'0 0.3
2018-Jun-14 21:00N 39°07' W 009°28'0 0.7
2018-Jun-14 20:29N 39°07' W 009°28'1 2.0
2018-Jun-14 20:00N 39°08' W 009°27'4 1.6
2018-Jun-14 17:35N 39°11' W 009°25'0 0.0
2018-Jun-13 21:47N 39°11' W 009°24'3 8.7
2018-Jun-13 21:26N 39°08' W 009°26'0 0.4
2018-Jun-13 20:10N 39°08' W 009°26'0 1.0
2018-Jun-13 20:00N 39°08' W 009°26'0 0.9
2018-Jun-13 19:29N 39°08' W 009°26'1 2.0
2018-Jun-13 19:00N 39°09' W 009°26'  
Track history (hours):
 
Tides and Currents Weather Stations Pressure Air Temp Water Temp Dewpoint Dewpoint Depression Visibility Wind Speed Wind Dir Waves Ship Positions

Meia Via

Last reported at 2018-Jun-22 21:57 UTC. Time now 2018-Jun-24 15:10 UTC.
Position N 39°14' W 009°29'.

Length 21 m.

Type: Fishing. MMSI: 263405570.

Date/timePositionNaut miles runAvg speedWind from/ knotsBaromVisibWave heightAir tempDewpointWater temp
2018-Jun-22 21:57N 39°14' W 009°29'3 5.8
2018-Jun-22 21:25N 39°11' W 009°29'0 0.1
2018-Jun-22 21:01N 39°11' W 009°29'0 0.2
2018-Jun-22 20:29N 39°11' W 009°29'2 4.0
2018-Jun-22 20:00N 39°12' W 009°28'1 0.2
2018-Jun-22 15:57N 39°13' W 009°27'1 3.4
2018-Jun-22 15:30N 39°11' W 009°28'0 0.1
2018-Jun-22 15:01N 39°11' W 009°28'0 0.2
2018-Jun-22 14:27N 39°11' W 009°28'3 4.5
2018-Jun-22 13:51N 39°14' W 009°28'7 0.5
2018-Jun-21 23:55N 39°20' W 009°24'4 9.9
2018-Jun-21 23:29N 39°17' W 009°28'5 9.9
2018-Jun-21 23:00N 39°14' W 009°32'1 2.7
2018-Jun-21 22:29N 39°13' W 009°33'4 4.8
2018-Jun-21 21:45N 39°10' W 009°31'2 9.7
2018-Jun-21 21:30N 39°08' W 009°29'1 1.5
2018-Jun-21 21:00N 39°07' W 009°29'0 0.1
2018-Jun-21 20:31N 39°07' W 009°28'1 2.0
2018-Jun-21 20:00N 39°08' W 009°28'1 1.3
2018-Jun-21 19:30N 39°08' W 009°29'0 0.0
2018-Jun-21 19:01N 39°08' W 009°29'0 0.1
2018-Jun-21 18:31N 39°08' W 009°28'1 2.0
2018-Jun-21 18:00N 39°09' W 009°28'4 8.2
2018-Jun-21 17:29N 39°13' W 009°25'1 0.1
2018-Jun-20 22:05N 39°14' W 009°25'4 8.5
2018-Jun-20 21:36N 39°10' W 009°26'1 8.6
2018-Jun-20 21:30N 39°09' W 009°26'2 4.4
2018-Jun-20 21:00N 39°07' W 009°27'0 0.1
2018-Jun-20 20:30N 39°07' W 009°27'1 1.9
2018-Jun-20 20:00N 39°07' W 009°28'0 0.6
2018-Jun-20 19:29N 39°07' W 009°29'1 2.4
2018-Jun-20 19:00N 39°08' W 009°27'0 0.0
2018-Jun-20 18:30N 39°08' W 009°27'0 0.1
2018-Jun-20 18:00N 39°08' W 009°27'2 4.6
2018-Jun-20 17:29N 39°10' W 009°25'1 2.9
2018-Jun-20 16:58N 39°10' W 009°24'0 0.0
2018-Jun-20 16:30N 39°10' W 009°24'0 0.1
2018-Jun-20 15:57N 39°10' W 009°24'1 1.3
2018-Jun-20 15:28N 39°11' W 009°24'2 0.1
2018-Jun-19 21:54N 39°11' W 009°26'4 9.0
2018-Jun-19 21:30N 39°08' W 009°27'1 2.6
2018-Jun-19 21:00N 39°06' W 009°28'0 0.3
2018-Jun-19 20:30N 39°06' W 009°27'0 0.3
2018-Jun-19 20:00N 39°06' W 009°27'0 0.6
2018-Jun-19 19:30N 39°06' W 009°27'0 0.9
2018-Jun-19 19:00N 39°06' W 009°27'0 0.3
2018-Jun-19 18:30N 39°06' W 009°27'0 0.4
2018-Jun-19 18:00N 39°06' W 009°27'0 0.2
2018-Jun-19 17:30N 39°06' W 009°27'3 5.9
2018-Jun-19 17:00N 39°03' W 009°29'4 8.6
2018-Jun-19 16:30N 38°59' W 009°28'10 4.9
2018-Jun-19 14:23N 39°09' W 009°25'8 0.3
2018-Jun-18 15:10N 39°18' W 009°26'  
2018-Jun-14 21:54N 39°10' W 009°26'3 8.9
2018-Jun-14 21:30N 39°07' W 009°28'0 0.3
2018-Jun-14 21:00N 39°07' W 009°28'0 0.7
2018-Jun-14 20:29N 39°07' W 009°28'1 2.0
2018-Jun-14 20:00N 39°08' W 009°27'4 1.6
2018-Jun-14 17:35N 39°11' W 009°25'0 0.0
2018-Jun-13 21:47N 39°11' W 009°24'3 8.7
2018-Jun-13 21:26N 39°08' W 009°26'0 0.4
2018-Jun-13 20:10N 39°08' W 009°26'0 1.0
2018-Jun-13 20:00N 39°08' W 009°26'0 0.9
2018-Jun-13 19:29N 39°08' W 009°26'1 2.0
2018-Jun-13 19:00N 39°09' W 009°26'  

Dump ship's entire track history